Latest Weather Observations for Montague Island

IDN60801

Issued at 5:35 pm EDT Friday 31 October 2014 (issued every 30 minutes, with the page automatically refreshed every 10 minutes)

About weather observations | Map of weather stations | Latest weather observations for NSW | Other Formats
Station Details ID: 069017 Name: MONTAGUE ISLAND LIGHTHOUSE Lat: -36.25 Lon: 150.23 Height: 52.0 m
Data from the previous 72 hours. | See also: Recent months at Montague Island
Date/Time
EDT
Temp
°C
App
Temp
°C
Dew
Point
Rel
Hum
%
Delta-T
°C
Wind Press
QNH
hPa
Press
MSL
hPa
Rain
since 9 am
mm
Dir
 
Spd
km/h
Gust
km/h
Spd
kts
Gust
kts
31/05:30pm 20.4 19.1 18.2 87 1.4 NNE 22 28 12 15 1005.0 1004.9 0.0
31/05:00pm 20.1 18.8 18.1 88 1.2 NNE 22 26 12 14 1005.0 1004.9 0.0
31/04:30pm 20.1 19.0 17.7 86 1.5 NNE 20 22 11 12 1005.4 1005.3 0.0
31/04:00pm 20.3 20.8 17.5 84 1.7 NNE 11 17 6 9 1005.8 1005.7 0.0
31/03:30pm 20.5 21.9 17.7 84 1.7 NNE 7 11 4 6 1006.2 1006.1 0.0
31/03:00pm 20.1 20.1 17.3 84 1.7 NNE 13 15 7 8 1006.6 1006.5 0.0
31/02:30pm 20.2 19.5 17.4 84 1.7 NNE 17 20 9 11 1007.0 1006.9 0.0
31/02:00pm 20.4 18.3 17.2 82 2.0 NNE 24 28 13 15 1007.3 1007.2 0.0
31/01:30pm 20.4 18.3 17.2 82 2.0 NNE 24 30 13 16 1007.8 1007.8 0.0
31/01:00pm 20.0 17.8 16.8 82 1.9 NNE 24 30 13 16 1008.1 1008.1 0.0
31/12:30pm 19.6 16.9 16.6 83 1.8 NNE 26 30 14 16 1008.7 1008.7 0.0
31/12:00pm 19.7 17.3 16.3 81 2.0 NNE 24 30 13 16 1009.5 1009.5 0.0
31/11:30am 19.3 17.6 16.3 83 1.8 NNE 20 26 11 14 1010.1 1010.1 0.0
31/11:00am 19.4 18.2 16.2 82 1.9 NNE 17 22 9 12 1011.0 1011.0 0.0
31/10:30am 18.9 17.8 15.4 80 2.1 NNE 15 20 8 11 1011.6 1011.6 0.0
31/10:00am 19.3 19.1 15.6 79 2.2 N 11 17 6 9 1012.2 1012.2 0.0
31/09:30am 18.6 18.6 15.1 80 2.0 NNW 9 13 5 7 1012.3 1012.3 0.0
31/09:00am 18.4 18.0 15.3 82 1.8 NW 11 15 6 8 1012.8 1012.8 0.0
31/08:30am 18.4 18.9 15.6 84 1.7 NW 7 11 4 6 1012.9 1012.9 0.0
31/08:00am 17.8 18.4 15.2 85 1.5 WNW 6 7 3 4 1012.7 1012.7 0.0
31/07:30am 17.1 17.6 14.9 87 1.3 W 6 9 3 5 1012.6 1012.6 0.0
31/07:00am 17.5 18.4 15.1 86 1.4 NNW 4 13 2 7 1012.6 1012.6 0.0
31/06:30am 17.4 17.3 15.0 86 1.4 NE 9 13 5 7 1012.5 1012.5 0.0
31/06:00am 17.3 16.5 15.1 87 1.3 NE 13 17 7 9 1012.2 1012.2 0.0
31/05:30am 16.9 15.7 15.1 89 1.0 E 15 17 8 9 1012.2 1012.2 0.0
31/05:00am 16.9 16.0 14.9 88 1.2 E 13 17 7 9 1012.2 1012.2 0.0
31/04:30am 17.0 16.2 15.0 88 1.2 E 13 15 7 8 1012.2 1012.2 0.0
31/04:00am 17.1 15.8 14.9 87 1.3 ENE 15 17 8 9 1012.4 1012.4 0.0
31/03:30am 17.1 16.2 14.9 87 1.3 E 13 17 7 9 1012.7 1012.7 0.0
31/03:00am 17.0 16.1 14.8 87 1.3 E 13 17 7 9 1012.9 1012.9 0.0
31/02:30am 17.0 16.1 14.8 87 1.3 E 13 17 7 9 1013.2 1013.1 0.0
31/02:00am 17.0 16.5 14.8 87 1.3 E 11 13 6 7 1013.6 1013.5 0.0
31/01:30am 17.0 16.4 14.6 86 1.4 ESE 11 13 6 7 1013.9 1013.8 0.0
31/01:00am 17.1 16.2 14.9 87 1.3 ESE 13 17 7 9 1014.4 1014.3 0.0
31/12:30am 17.0 15.7 14.8 87 1.3 ESE 15 17 8 9 1014.6 1014.5 0.0
31/12:00am 17.1 15.8 14.9 87 1.3 ESE 15 17 8 9 1014.7 1014.6 0.0
 
Date/Time
EDT
Temp
°C
App
Temp
°C
Dew
Point
Rel
Hum
%
Delta-T
°C
Wind Press
QNH
hPa
Press
MSL
hPa
Rain
since 9 am
mm
Dir
 
Spd
km/h
Gust
km/h
Spd
kts
Gust
kts
30/11:30pm 17.3 15.7 15.1 87 1.3 SE 17 20 9 11 1014.9 1014.8 0.0
30/11:00pm 17.3 15.2 15.3 88 1.2 SSE 20 22 11 12 1015.0 1014.9 0.0
30/10:30pm 17.3 15.3 15.5 89 1.1 SSE 20 24 11 13 1015.0 1014.9 0.0
30/10:00pm 17.4 15.4 15.6 89 1.1 SSE 20 26 11 14 1014.9 1014.8 0.0
30/09:30pm 17.8 15.1 15.6 87 1.3 S 24 30 13 16 1015.0 1014.9 0.0
30/09:00pm 18.0 15.5 16.2 89 1.1 S 24 30 13 16 1014.7 1014.6 0.0
30/08:30pm 18.0 15.8 16.0 88 1.2 S 22 28 12 15 1014.1 1014.0 0.0
30/08:00pm 18.3 16.4 16.6 90 1.0 S 22 28 12 15 1013.8 1013.7 0.0
30/07:30pm 18.4 16.2 16.9 91 0.9 S 24 28 13 15 1013.5 1013.4 0.0
30/07:00pm 19.0 17.7 16.8 87 1.3 S 19 22 10 12 1012.7 1012.7 0.0
30/06:30pm 19.2 18.6 16.6 85 1.6 S 15 19 8 10 1012.2 1012.2 0.0
30/06:00pm 19.4 19.4 16.2 82 1.9 SSE 11 15 6 8 1011.7 1011.7 0.0
30/05:30pm 20.2 21.6 15.4 74 2.8 ESE 2 4 1 2 1011.4 1011.4 0.0
30/05:00pm 20.1 21.3 15.9 77 2.5 NNE 4 7 2 4 1011.1 1011.1 0.0
30/04:30pm 20.2 20.9 16.2 78 2.4 E 7 9 4 5 1011.2 1011.2 0.0
30/04:00pm 20.3 20.3 16.3 78 2.4 ENE 11 13 6 7 1011.1 1011.1 0.0
30/03:30pm 20.2 19.8 16.2 78 2.4 ENE 13 15 7 8 1010.9 1010.9 0.0
30/03:00pm 19.9 19.2 15.5 76 2.6 NE 13 17 7 9 1011.1 1011.1 0.0
30/02:30pm 19.9 18.7 15.1 74 2.8 NNE 15 19 8 10 1011.4 1011.4 0.0
30/02:00pm 19.9 18.0 15.3 75 2.7 NNE 19 22 10 12 1011.7 1011.7 0.0
30/01:30pm 19.7 17.9 15.4 76 2.5 NNE 19 22 10 12 1011.8 1011.8 0.0
30/01:00pm 19.0 18.2 15.1 78 2.3 NE 13 17 7 9 1012.2 1012.2 0.0
30/12:30pm 18.6 16.9 14.7 78 2.3 NE 17 19 9 10 1012.6 1012.6 0.0
30/12:00pm 18.9 17.9 15.6 81 2.0 NNE 15 17 8 9 1013.1 1013.0 0.0
30/11:30am 18.8 18.4 15.1 79 2.2 NNE 11 17 6 9 1013.6 1013.5 0.0
30/11:00am 18.4 17.7 14.3 77 2.4 NNE 11 15 6 8 1013.7 1013.6 0.0
30/10:30am 18.6 18.6 14.1 75 2.6 NE 7 13 4 7 1013.9 1013.8 0.0
30/10:00am 18.9 19.1 14.2 74 2.7 N 6 9 3 5 1014.1 1014.0 0.0
30/09:30am 18.4 19.1 13.5 73 2.8 NNW 2 6 1 3 1014.0 1013.9 0.0
30/09:00am 17.0 17.2 13.1 78 2.2 W 4 9 2 5 1014.3 1014.2 0.0
30/08:30am 16.1 15.8 13.4 84 1.5 W 7 9 4 5 1014.5 1014.4 0.0
30/08:00am 16.0 16.0 13.7 86 1.3 WSW 6 9 3 5 1014.2 1014.1 0.0
30/07:30am 15.6 14.9 13.3 86 1.3 SW 9 13 5 7 1014.2 1014.1 0.0
30/07:00am 15.2 13.7 13.1 87 1.2 SW 13 17 7 9 1014.2 1014.1 0.0
30/06:30am 14.9 12.6 13.1 89 1.0 SW 17 20 9 11 1013.9 1013.8 0.0
30/06:00am 14.9 13.1 13.4 91 0.8 SW 15 17 8 9 1013.7 1013.6 0.0
30/05:30am 15.0 13.3 13.7 92 0.7 SW 15 19 8 10 1013.5 1013.4 0.0
30/05:00am 15.1 13.1 13.8 92 0.7 SW 17 19 9 10 1013.4 1013.3 0.0
30/04:30am 15.2 13.2 13.9 92 0.7 SW 17 20 9 11 1013.6 1013.5 0.0
30/04:00am 15.5 14.0 14.2 92 0.7 SW 15 19 8 10 1013.8 1013.7 0.0
30/03:30am 15.5 15.1 14.0 91 0.8 SW 9 11 5 6 1013.9 1013.8 0.0
30/03:00am 15.3 15.1 13.7 90 0.9 WSW 7 7 4 4 1014.0 1013.9 0.0
30/02:30am 15.3 15.7 13.7 90 0.9 SW 4 6 2 3 1014.2 1014.1 0.0
30/02:00am 15.4 15.5 13.8 90 0.9 WSW 6 7 3 4 1014.5 1014.4 0.0
30/01:30am 15.5 15.1 14.0 91 0.8 WSW 9 11 5 6 1015.0 1014.9 0.0
30/01:00am 15.6 15.6 14.3 92 0.7 W 7 11 4 6 1015.5 1015.4 0.0
30/12:30am 15.5 15.5 14.2 92 0.7 WNW 7 9 4 5 1015.7 1015.6 0.0
30/12:00am 15.5 15.1 14.2 92 0.7 NW 9 11 5 6 1015.9 1015.8 0.0
 
Date/Time
EDT
Temp
°C
App
Temp
°C
Dew
Point
Rel
Hum
%
Delta-T
°C
Wind Press
QNH
hPa
Press
MSL
hPa
Rain
since 9 am
mm
Dir
 
Spd
km/h
Gust
km/h
Spd
kts
Gust
kts
29/11:30pm 15.6 15.6 14.3 92 0.7 NW 7 11 4 6 1016.1 1016.0 0.0
29/11:00pm 15.7 15.0 14.2 91 0.9 NW 11 13 6 7 1016.5 1016.4 0.0
29/10:30pm 15.9 14.6 13.7 87 1.2 N 13 17 7 9 1016.5 1016.4 0.0
29/10:00pm 16.2 13.9 12.9 81 1.8 N 17 20 9 11 1016.6 1016.5 0.0
29/09:30pm 16.5 13.0 12.3 76 2.3 NNE 22 26 12 14 1016.7 1016.6 0.0
29/09:00pm 16.4 13.1 11.6 73 2.6 NNE 20 30 11 16 1016.6 1016.5 0.0
29/08:30pm 16.3 12.9 11.2 72 2.7 NNE 20 28 11 15 1016.5 1016.4 0.0
29/08:00pm 16.3 13.0 10.8 70 2.9 NNE 19 26 10 14 1016.4 1016.3 0.0
29/07:30pm 16.3 12.9 10.6 69 3.0 NE 19 26 10 14 1016.2 1016.1 0.0
29/07:00pm 16.4 13.4 10.7 69 3.0 NE 17 26 9 14 1015.9 1015.8 0.0
29/06:30pm 16.6 13.2 10.7 68 3.2 NE 19 24 10 13 1015.8 1015.7 0.0
29/06:00pm 16.8 13.9 11.1 69 3.1 NE 17 22 9 12 1015.7 1015.6 0.0
29/05:30pm 16.8 13.9 11.1 69 3.1 NE 17 20 9 11 1015.5 1015.4 0.0
29/05:00pm 16.6 13.5 10.2 66 3.4 NE 17 24 9 13 1015.5 1015.4 0.0
29/04:30pm 16.9 13.5 10.5 66 3.4 NE 19 22 10 12 1015.5 1015.4 0.0
29/04:00pm 17.3 14.2 10.4 64 3.7 ENE 17 22 9 12 1015.4 1015.3 0.0
29/03:30pm 18.0 15.2 10.1 60 4.2 E 15 20 8 11 1015.5 1015.4 0.0
29/03:00pm 18.1 15.5 10.7 62 4.0 E 15 20 8 11 1015.7 1015.6 0.0
29/02:30pm 18.1 15.5 10.7 62 4.0 E 15 20 8 11 1015.8 1015.7 0.0
29/02:00pm 18.0 15.2 9.9 59 4.3 E 15 19 8 10 1016.1 1016.0 0.0
29/01:30pm 18.2 15.4 10.1 59 4.3 E 15 19 8 10 1016.4 1016.3 0.0
29/01:00pm 18.1 15.0 10.2 60 4.2 ESE 17 20 9 11 1016.4 1016.3 0.0
29/12:30pm 18.1 14.7 10.5 61 4.1 ESE 19 24 10 13 1016.6 1016.5 0.0
29/12:00pm 18.4 15.0 10.5 60 4.2 SE 19 24 10 13 1016.8 1016.7 0.0
29/11:30am 18.0 14.2 9.1 56 4.6 SE 19 26 10 14 1017.1 1017.0 0.0
29/11:00am 17.5 14.5 9.2 58 4.3 SE 15 22 8 12 1017.3 1017.2 0.0
29/10:30am 17.4 14.3 8.8 57 4.5 SSE 15 20 8 11 1017.4 1017.3 0.0
29/10:00am 17.4 14.4 9.3 59 4.2 SSE 15 19 8 10 1017.3 1017.2 0.0
29/09:30am 16.9 13.4 8.8 59 4.2 S 17 20 9 11 1017.3 1017.2 0.0
29/09:00am 16.2 12.4 8.9 62 3.8 SSW 19 26 10 14 1017.0 1016.9 0.0
29/08:30am 15.8 10.5 8.5 62 3.7 SSW 26 32 14 17 1017.0 1016.9 0.0
29/08:00am 15.0 9.7 8.3 64 3.4 SSW 26 33 14 18 1016.8 1016.7 0.0
29/07:30am 15.3 8.9 8.5 64 3.5 SSW 32 39 17 21 1016.6 1016.5 0.0
29/07:00am 14.7 9.5 8.9 68 3.0 SW 26 33 14 18 1016.2 1016.1 0.0
29/06:30am 14.7 10.4 9.5 71 2.7 SSW 22 28 12 15 1015.9 1015.8 0.0
29/06:00am 14.2 9.9 9.4 73 2.5 SSW 22 30 12 16 1015.4 1015.3 0.0
29/05:30am 14.3 10.6 10.1 76 2.2 SSW 20 26 11 14 1014.7 1014.6 0.0
29/05:00am 14.1 10.3 9.9 76 2.2 SSW 20 26 11 14 1014.3 1014.2 0.0
29/04:30am 14.2 10.2 10.4 78 2.0 SSW 22 28 12 15 1014.0 1013.9 0.0
29/04:00am 14.6 10.2 10.4 76 2.2 SSW 24 32 13 17 1013.5 1013.4 0.0
29/03:30am 15.0 8.9 10.4 74 2.4 SSW 33 41 18 22 1013.5 1013.4 0.0
29/03:00am 15.1 8.8 10.9 76 2.2 S 35 43 19 23 1013.7 1013.6 0.0
29/02:30am 15.3 9.6 11.3 77 2.1 S 32 39 17 21 1013.4 1013.3 0.0
29/02:00am 15.4 9.8 11.4 77 2.2 S 32 39 17 21 1013.3 1013.2 0.0
29/01:30am 15.5 10.7 11.5 77 2.2 S 28 35 15 19 1013.2 1013.1 0.0
29/01:00am 15.7 10.2 11.7 77 2.2 SSE 32 35 17 19 1013.1 1013.0 0.0
29/12:30am 16.0 10.7 12.4 79 2.0 SSE 32 35 17 19 1013.1 1013.0 0.0
29/12:00am 16.7 12.1 13.4 81 1.9 SE 30 35 16 19 1012.7 1012.7 0.0
 
Date/Time
EDT
Temp
°C
App
Temp
°C
Dew
Point
Rel
Hum
%
Delta-T
°C
Wind Press
QNH
hPa
Press
MSL
hPa
Rain
since 9 am
mm
Dir
 
Spd
km/h
Gust
km/h
Spd
kts
Gust
kts
28/11:30pm 17.0 14.7 10.6 66 3.4 NW 13 17 7 9 1012.2 1012.2 0.0
28/11:00pm 17.1 14.4 10.2 64 3.7 NW 15 17 8 9 1012.0 1012.0 0.0
28/10:30pm 17.7 14.3 10.6 63 3.8 WNW 19 20 10 11 1011.9 1011.9 0.0
28/10:00pm 18.2 14.3 8.5 53 5.0 WNW 19 22 10 12 1011.7 1011.7 0.0
28/09:30pm 18.5 15.0 8.7 53 5.1 NW 17 24 9 13 1011.4 1011.4 0.0
28/09:00pm 18.4 15.7 10.3 59 4.3 NW 15 19 8 10 1011.3 1011.3 0.0
28/08:30pm 19.5 14.1 6.3 42 6.6 W 24 35 13 19 1010.7 1010.7 0.0
28/08:07pm 19.0 13.3 8.4 50 5.5 W 28 33 15 18 1010.2 1010.2 0.0
28/08:00pm 19.3 12.0 8.9 51 5.5 WSW 37 41 20 22 1009.9 1009.9 0.0
28/07:30pm 19.0 14.7 9.2 53 5.2 SSW 22 30 12 16 1009.5 1009.5 0.0
28/07:00pm 18.6 13.4 10.2 58 4.5 S 28 37 15 20 1009.3 1009.3 0.0
28/06:51pm 18.7 13.6 11.8 64 3.8 SSE 30 37 16 20 1009.1 1009.1 0.0
28/06:30pm 18.2 11.7 12.9 71 3.0 SE 39 46 21 25 1008.2 1008.2 0.0
28/06:00pm 18.9 13.7 14.6 76 2.5 SE 35 43 19 23 1007.4 1007.3 0.0

Other Formats:

Comma delimited format used in spreadsheet applications
http://www.bom.gov.au/fwo/IDN60801/IDN60801.94939.axf

JavaScript Object Notation format (JSON) in row-major order
http://www.bom.gov.au/fwo/IDN60801/IDN60801.94939.json